LIPX/VRN METAR and TAF weather

Enter ICAO airport designator
Station Type Date Time Source
LIPX METAR 2022/01/18 07:20 UTC NOAA

LIPX 180720Z AUTO 17003KT 2200 1300SW BR NCD M01/M02 Q1031


Station Type Date Time Source
LIPX Decoded METAR 2022/01/18 07:20 UTC NOAA

Verona / Villafranca, Italy (LIPX) 45-23N 010-52E 68M
Jan 18, 2022 - 02:20 AM EST / 2022.01.18 0720 UTC
Wind: from the S (170 degrees) at 3 MPH (3 KT):0
Visibility: 1 mile(s):0
Weather: mist
Temperature: 30 F (-1 C)
Dew Point: 28 F (-2 C)
Relative Humidity: 92%
Pressure (altimeter): 30.45 in. Hg (1031 hPa)
ob: LIPX 180720Z AUTO 17003KT 2200 1300SW BR NCD M01/M02 Q1031
cycle: 7

Station Type Date Time Source
LIPX TAF 2022/01/18 06:22 UTC NOAA

TAF LIPX 180500Z 1806/1906 VRB05KT 3000 BR NSC
BECMG 1807/1809 8000
TEMPO 1821/1906 0800 FZFG

Example: see airport list